sensor_id;sensor_type;location;lat;lon;timestamp;temperature;humidity
23160;DHT22;11748;50.844;4.396;2022-10-31T00:01:18;16.90;99.90
23160;DHT22;11748;50.844;4.396;2022-10-31T00:03:44;16.90;99.90
23160;DHT22;11748;50.844;4.396;2022-10-31T00:06:11;16.90;99.90
23160;DHT22;11748;50.844;4.396;2022-10-31T00:08:37;16.80;99.90
23160;DHT22;11748;50.844;4.396;2022-10-31T00:11:03;16.90;99.90
23160;DHT22;11748;50.844;4.396;2022-10-31T00:13:28;16.80;99.90
23160;DHT22;11748;50.844;4.396;2022-10-31T00:15:54;16.80;99.90
23160;DHT22;11748;50.844;4.396;2022-10-31T00:18:20;16.80;99.90
23160;DHT22;11748;50.844;4.396;2022-10-31T00:20:45;16.80;99.90
23160;DHT22;11748;50.844;4.396;2022-10-31T00:23:11;16.80;99.90
23160;DHT22;11748;50.844;4.396;2022-10-31T00:25:39;16.80;99.90
23160;DHT22;11748;50.844;4.396;2022-10-31T00:28:06;16.80;99.90
23160;DHT22;11748;50.844;4.396;2022-10-31T00:30:32;16.80;99.90
23160;DHT22;11748;50.844;4.396;2022-10-31T00:32:58;16.70;99.90
23160;DHT22;11748;50.844;4.396;2022-10-31T00:35:24;16.70;99.90
23160;DHT22;11748;50.844;4.396;2022-10-31T00:37:50;16.60;99.90
23160;DHT22;11748;50.844;4.396;2022-10-31T00:40:17;16.60;99.90
23160;DHT22;11748;50.844;4.396;2022-10-31T00:42:42;16.50;99.90
23160;DHT22;11748;50.844;4.396;2022-10-31T00:45:09;16.40;99.90
23160;DHT22;11748;50.844;4.396;2022-10-31T00:47:35;16.40;99.90
23160;DHT22;11748;50.844;4.396;2022-10-31T00:50:00;16.30;99.90
23160;DHT22;11748;50.844;4.396;2022-10-31T00:52:26;16.30;99.90
23160;DHT22;11748;50.844;4.396;2022-10-31T00:54:52;16.30;99.90
23160;DHT22;11748;50.844;4.396;2022-10-31T00:57:17;16.40;99.90
23160;DHT22;11748;50.844;4.396;2022-10-31T00:59:43;16.30;99.90
23160;DHT22;11748;50.844;4.396;2022-10-31T01:02:09;16.20;99.90
23160;DHT22;11748;50.844;4.396;2022-10-31T01:04:34;16.20;99.90
23160;DHT22;11748;50.844;4.396;2022-10-31T01:07:00;16.20;99.90
23160;DHT22;11748;50.844;4.396;2022-10-31T01:09:26;16.20;99.90
23160;DHT22;11748;50.844;4.396;2022-10-31T01:11:51;16.20;99.90
23160;DHT22;11748;50.844;4.396;2022-10-31T01:14:17;16.10;99.90
23160;DHT22;11748;50.844;4.396;2022-10-31T01:16:43;16.10;99.90
23160;DHT22;11748;50.844;4.396;2022-10-31T01:19:08;16.10;99.90
23160;DHT22;11748;50.844;4.396;2022-10-31T01:21:34;16.10;99.90
23160;DHT22;11748;50.844;4.396;2022-10-31T01:24:00;16.10;99.90
23160;DHT22;11748;50.844;4.396;2022-10-31T01:26:30;16.10;99.90
23160;DHT22;11748;50.844;4.396;2022-10-31T01:29:02;16.10;99.90
23160;DHT22;11748;50.844;4.396;2022-10-31T01:31:30;16.10;99.90
23160;DHT22;11748;50.844;4.396;2022-10-31T01:33:57;16.10;99.90
23160;DHT22;11748;50.844;4.396;2022-10-31T01:38:57;16.00;99.90
23160;DHT22;11748;50.844;4.396;2022-10-31T01:41:28;16.00;99.90
23160;DHT22;11748;50.844;4.396;2022-10-31T01:43:56;16.00;99.90
23160;DHT22;11748;50.844;4.396;2022-10-31T01:48:53;16.00;99.90
23160;DHT22;11748;50.844;4.396;2022-10-31T01:51:21;16.10;99.90
23160;DHT22;11748;50.844;4.396;2022-10-31T01:53:51;16.00;99.90
23160;DHT22;11748;50.844;4.396;2022-10-31T01:56:20;16.00;99.90
23160;DHT22;11748;50.844;4.396;2022-10-31T01:58:46;15.90;99.90
23160;DHT22;11748;50.844;4.396;2022-10-31T02:01:13;15.90;99.90
23160;DHT22;11748;50.844;4.396;2022-10-31T02:03:40;15.90;99.90
23160;DHT22;11748;50.844;4.396;2022-10-31T02:06:11;15.90;99.90
23160;DHT22;11748;50.844;4.396;2022-10-31T02:08:39;15.90;99.90
23160;DHT22;11748;50.844;4.396;2022-10-31T02:11:06;15.90;99.90
23160;DHT22;11748;50.844;4.396;2022-10-31T02:13:34;15.90;99.90
23160;DHT22;11748;50.844;4.396;2022-10-31T02:16:00;15.90;99.90
23160;DHT22;11748;50.844;4.396;2022-10-31T02:18:29;15.80;99.90
23160;DHT22;11748;50.844;4.396;2022-10-31T02:26:51;15.70;99.90
23160;DHT22;11748;50.844;4.396;2022-10-31T02:32:04;15.80;99.90
23160;DHT22;11748;50.844;4.396;2022-10-31T02:34:42;15.70;99.90
23160;DHT22;11748;50.844;4.396;2022-10-31T02:37:14;15.70;99.90
23160;DHT22;11748;50.844;4.396;2022-10-31T02:39:53;15.70;99.90
23160;DHT22;11748;50.844;4.396;2022-10-31T02:46:07;15.60;99.90
23160;DHT22;11748;50.844;4.396;2022-10-31T02:48:18;15.60;99.90
23160;DHT22;11748;50.844;4.396;2022-10-31T02:50:51;15.60;99.90
23160;DHT22;11748;50.844;4.396;2022-10-31T02:53:18;15.60;99.90
23160;DHT22;11748;50.844;4.396;2022-10-31T02:56:04;15.50;99.90
23160;DHT22;11748;50.844;4.396;2022-10-31T02:58:35;15.60;99.90
23160;DHT22;11748;50.844;4.396;2022-10-31T03:04:32;15.50;99.90
23160;DHT22;11748;50.844;4.396;2022-10-31T03:07:21;15.50;99.90
23160;DHT22;11748;50.844;4.396;2022-10-31T03:12:28;15.50;99.90
23160;DHT22;11748;50.844;4.396;2022-10-31T03:17:37;15.50;99.90
23160;DHT22;11748;50.844;4.396;2022-10-31T03:20:07;15.50;99.90
23160;DHT22;11748;50.844;4.396;2022-10-31T03:22:35;15.50;99.90
23160;DHT22;11748;50.844;4.396;2022-10-31T03:25:04;15.50;99.90
23160;DHT22;11748;50.844;4.396;2022-10-31T03:27:33;15.50;99.90
23160;DHT22;11748;50.844;4.396;2022-10-31T03:30:03;15.50;99.90
23160;DHT22;11748;50.844;4.396;2022-10-31T03:32:37;15.50;99.90
23160;DHT22;11748;50.844;4.396;2022-10-31T03:35:06;15.50;99.90
23160;DHT22;11748;50.844;4.396;2022-10-31T03:37:35;15.40;99.90
23160;DHT22;11748;50.844;4.396;2022-10-31T03:40:04;15.40;99.90
23160;DHT22;11748;50.844;4.396;2022-10-31T03:42:33;15.40;99.90
23160;DHT22;11748;50.844;4.396;2022-10-31T03:45:30;15.30;99.90
23160;DHT22;11748;50.844;4.396;2022-10-31T03:47:56;15.30;99.90
23160;DHT22;11748;50.844;4.396;2022-10-31T03:50:25;15.30;99.90
23160;DHT22;11748;50.844;4.396;2022-10-31T03:53:24;15.30;99.90
23160;DHT22;11748;50.844;4.396;2022-10-31T03:58:28;15.20;99.90
23160;DHT22;11748;50.844;4.396;2022-10-31T04:01:00;15.20;99.90
23160;DHT22;11748;50.844;4.396;2022-10-31T04:03:30;15.20;99.90
23160;DHT22;11748;50.844;4.396;2022-10-31T04:06:00;15.20;99.90
23160;DHT22;11748;50.844;4.396;2022-10-31T04:08:29;15.20;99.90
23160;DHT22;11748;50.844;4.396;2022-10-31T04:10:58;15.20;99.90
23160;DHT22;11748;50.844;4.396;2022-10-31T04:13:27;15.10;99.90
23160;DHT22;11748;50.844;4.396;2022-10-31T04:15:55;15.10;99.90
23160;DHT22;11748;50.844;4.396;2022-10-31T04:18:24;15.00;99.90
23160;DHT22;11748;50.844;4.396;2022-10-31T04:20:59;15.00;99.90
23160;DHT22;11748;50.844;4.396;2022-10-31T04:23:27;15.00;99.90
23160;DHT22;11748;50.844;4.396;2022-10-31T04:25:53;15.00;99.90
23160;DHT22;11748;50.844;4.396;2022-10-31T04:28:19;15.00;99.90
23160;DHT22;11748;50.844;4.396;2022-10-31T04:30:45;14.90;99.90
23160;DHT22;11748;50.844;4.396;2022-10-31T04:33:10;15.00;99.90
23160;DHT22;11748;50.844;4.396;2022-10-31T04:35:36;14.90;99.90
23160;DHT22;11748;50.844;4.396;2022-10-31T04:38:02;14.90;99.90
23160;DHT22;11748;50.844;4.396;2022-10-31T04:40:29;14.90;99.90
23160;DHT22;11748;50.844;4.396;2022-10-31T04:42:54;14.90;99.90
23160;DHT22;11748;50.844;4.396;2022-10-31T04:45:20;14.90;99.90
23160;DHT22;11748;50.844;4.396;2022-10-31T04:47:46;14.90;99.90
23160;DHT22;11748;50.844;4.396;2022-10-31T04:50:12;14.80;99.90
23160;DHT22;11748;50.844;4.396;2022-10-31T04:52:41;14.80;99.90
23160;DHT22;11748;50.844;4.396;2022-10-31T04:55:08;14.80;99.90
23160;DHT22;11748;50.844;4.396;2022-10-31T04:57:43;14.80;99.90
23160;DHT22;11748;50.844;4.396;2022-10-31T05:00:11;14.80;99.90
23160;DHT22;11748;50.844;4.396;2022-10-31T05:02:51;14.80;99.90
23160;DHT22;11748;50.844;4.396;2022-10-31T05:05:19;14.80;99.90
23160;DHT22;11748;50.844;4.396;2022-10-31T05:07:46;14.80;99.90
23160;DHT22;11748;50.844;4.396;2022-10-31T05:10:15;14.90;99.90
23160;DHT22;11748;50.844;4.396;2022-10-31T05:12:49;14.90;99.90
23160;DHT22;11748;50.844;4.396;2022-10-31T05:15:16;14.90;99.90
23160;DHT22;11748;50.844;4.396;2022-10-31T05:17:43;14.80;99.90
23160;DHT22;11748;50.844;4.396;2022-10-31T05:20:10;14.80;99.90
23160;DHT22;11748;50.844;4.396;2022-10-31T05:22:36;14.80;99.90
23160;DHT22;11748;50.844;4.396;2022-10-31T05:25:01;14.90;99.90
23160;DHT22;11748;50.844;4.396;2022-10-31T05:27:27;14.90;99.90
23160;DHT22;11748;50.844;4.396;2022-10-31T05:29:53;14.90;99.90
23160;DHT22;11748;50.844;4.396;2022-10-31T05:32:19;14.90;99.90
23160;DHT22;11748;50.844;4.396;2022-10-31T05:34:44;15.00;99.90
23160;DHT22;11748;50.844;4.396;2022-10-31T05:37:10;15.10;99.90
23160;DHT22;11748;50.844;4.396;2022-10-31T05:39:36;15.10;99.90
23160;DHT22;11748;50.844;4.396;2022-10-31T05:42:01;15.10;99.90
23160;DHT22;11748;50.844;4.396;2022-10-31T05:44:27;15.00;99.90
23160;DHT22;11748;50.844;4.396;2022-10-31T05:46:53;14.90;99.90
23160;DHT22;11748;50.844;4.396;2022-10-31T05:49:19;14.90;99.90
23160;DHT22;11748;50.844;4.396;2022-10-31T05:51:44;14.80;99.90
23160;DHT22;11748;50.844;4.396;2022-10-31T05:54:10;14.80;99.90
23160;DHT22;11748;50.844;4.396;2022-10-31T05:56:36;14.80;99.90
23160;DHT22;11748;50.844;4.396;2022-10-31T05:59:02;14.90;99.90
23160;DHT22;11748;50.844;4.396;2022-10-31T06:01:27;15.00;99.90
23160;DHT22;11748;50.844;4.396;2022-10-31T06:03:53;15.00;99.90
23160;DHT22;11748;50.844;4.396;2022-10-31T06:06:19;15.00;99.90
23160;DHT22;11748;50.844;4.396;2022-10-31T06:08:45;15.10;99.90
23160;DHT22;11748;50.844;4.396;2022-10-31T06:11:10;15.10;99.90
23160;DHT22;11748;50.844;4.396;2022-10-31T06:13:36;15.20;99.90
23160;DHT22;11748;50.844;4.396;2022-10-31T06:16:02;15.30;99.90
23160;DHT22;11748;50.844;4.396;2022-10-31T06:18:28;15.30;99.90
23160;DHT22;11748;50.844;4.396;2022-10-31T06:20:53;15.30;99.90
23160;DHT22;11748;50.844;4.396;2022-10-31T06:23:19;15.30;99.90
23160;DHT22;11748;50.844;4.396;2022-10-31T06:25:49;15.40;99.90
23160;DHT22;11748;50.844;4.396;2022-10-31T06:28:15;15.40;99.90
23160;DHT22;11748;50.844;4.396;2022-10-31T06:30:41;15.40;99.90
23160;DHT22;11748;50.844;4.396;2022-10-31T06:33:06;15.40;99.90
23160;DHT22;11748;50.844;4.396;2022-10-31T06:35:32;15.40;99.90
23160;DHT22;11748;50.844;4.396;2022-10-31T06:37:58;15.40;99.90
23160;DHT22;11748;50.844;4.396;2022-10-31T06:40:24;15.40;99.90
23160;DHT22;11748;50.844;4.396;2022-10-31T06:42:57;15.40;99.90
23160;DHT22;11748;50.844;4.396;2022-10-31T06:45:23;15.40;99.90
23160;DHT22;11748;50.844;4.396;2022-10-31T06:47:53;15.40;99.90
23160;DHT22;11748;50.844;4.396;2022-10-31T06:50:20;15.40;99.90
23160;DHT22;11748;50.844;4.396;2022-10-31T06:52:53;15.40;99.90
23160;DHT22;11748;50.844;4.396;2022-10-31T06:55:21;15.50;99.90
23160;DHT22;11748;50.844;4.396;2022-10-31T06:57:58;15.60;99.90
23160;DHT22;11748;50.844;4.396;2022-10-31T07:00:25;15.50;99.90
23160;DHT22;11748;50.844;4.396;2022-10-31T07:03:03;15.50;99.90
23160;DHT22;11748;50.844;4.396;2022-10-31T07:05:30;15.50;99.90
23160;DHT22;11748;50.844;4.396;2022-10-31T07:08:01;15.50;99.90
23160;DHT22;11748;50.844;4.396;2022-10-31T07:10:30;15.50;99.90
23160;DHT22;11748;50.844;4.396;2022-10-31T07:12:58;15.50;99.90
23160;DHT22;11748;50.844;4.396;2022-10-31T07:15:25;15.50;99.90
23160;DHT22;11748;50.844;4.396;2022-10-31T07:17:51;15.50;99.90
23160;DHT22;11748;50.844;4.396;2022-10-31T07:20:17;15.60;99.90
23160;DHT22;11748;50.844;4.396;2022-10-31T07:22:43;15.70;99.90
23160;DHT22;11748;50.844;4.396;2022-10-31T07:25:10;15.80;99.90
23160;DHT22;11748;50.844;4.396;2022-10-31T07:27:37;15.80;99.90
23160;DHT22;11748;50.844;4.396;2022-10-31T07:30:04;15.70;99.90
23160;DHT22;11748;50.844;4.396;2022-10-31T07:32:44;15.80;99.90
23160;DHT22;11748;50.844;4.396;2022-10-31T07:35:21;15.80;99.90
23160;DHT22;11748;50.844;4.396;2022-10-31T07:37:48;15.80;99.90
23160;DHT22;11748;50.844;4.396;2022-10-31T07:40:15;15.90;99.90
23160;DHT22;11748;50.844;4.396;2022-10-31T07:42:43;15.90;99.90
23160;DHT22;11748;50.844;4.396;2022-10-31T07:45:11;15.90;99.90
23160;DHT22;11748;50.844;4.396;2022-10-31T07:47:58;15.90;99.90
23160;DHT22;11748;50.844;4.396;2022-10-31T07:50:31;16.00;99.90
23160;DHT22;11748;50.844;4.396;2022-10-31T07:53:05;16.10;99.90
23160;DHT22;11748;50.844;4.396;2022-10-31T07:55:31;16.10;99.90
23160;DHT22;11748;50.844;4.396;2022-10-31T07:57:59;16.10;99.90
23160;DHT22;11748;50.844;4.396;2022-10-31T08:00:25;16.10;99.90
23160;DHT22;11748;50.844;4.396;2022-10-31T08:03:04;16.20;99.90
23160;DHT22;11748;50.844;4.396;2022-10-31T08:05:31;16.20;99.90
23160;DHT22;11748;50.844;4.396;2022-10-31T08:07:58;16.20;99.90
23160;DHT22;11748;50.844;4.396;2022-10-31T08:10:24;16.20;99.90
23160;DHT22;11748;50.844;4.396;2022-10-31T08:13:05;16.20;99.90
23160;DHT22;11748;50.844;4.396;2022-10-31T08:15:30;16.30;99.90
23160;DHT22;11748;50.844;4.396;2022-10-31T08:17:56;16.30;99.90
23160;DHT22;11748;50.844;4.396;2022-10-31T08:20:22;16.40;99.90
23160;DHT22;11748;50.844;4.396;2022-10-31T08:23:02;16.40;99.90
23160;DHT22;11748;50.844;4.396;2022-10-31T08:25:30;16.50;99.90
23160;DHT22;11748;50.844;4.396;2022-10-31T08:27:56;16.60;99.90
23160;DHT22;11748;50.844;4.396;2022-10-31T08:30:24;16.60;99.90
23160;DHT22;11748;50.844;4.396;2022-10-31T08:33:06;16.60;99.90
23160;DHT22;11748;50.844;4.396;2022-10-31T08:35:33;16.60;99.90
23160;DHT22;11748;50.844;4.396;2022-10-31T08:37:59;16.60;99.90
23160;DHT22;11748;50.844;4.396;2022-10-31T08:40:26;16.60;99.90
23160;DHT22;11748;50.844;4.396;2022-10-31T08:43:00;16.60;99.90
23160;DHT22;11748;50.844;4.396;2022-10-31T08:45:27;16.60;99.90
23160;DHT22;11748;50.844;4.396;2022-10-31T08:47:56;16.60;99.90
23160;DHT22;11748;50.844;4.396;2022-10-31T08:50:23;16.70;99.90
23160;DHT22;11748;50.844;4.396;2022-10-31T08:52:49;16.80;99.90
23160;DHT22;11748;50.844;4.396;2022-10-31T08:55:14;16.90;99.90
23160;DHT22;11748;50.844;4.396;2022-10-31T08:57:40;17.00;99.90
23160;DHT22;11748;50.844;4.396;2022-10-31T09:00:06;17.00;99.90
23160;DHT22;11748;50.844;4.396;2022-10-31T09:02:32;17.10;99.90
23160;DHT22;11748;50.844;4.396;2022-10-31T09:04:58;17.10;99.90
23160;DHT22;11748;50.844;4.396;2022-10-31T09:07:24;17.20;99.90
23160;DHT22;11748;50.844;4.396;2022-10-31T09:09:50;17.20;99.90
23160;DHT22;11748;50.844;4.396;2022-10-31T09:12:15;17.20;99.90
23160;DHT22;11748;50.844;4.396;2022-10-31T09:14:41;17.20;99.90
23160;DHT22;11748;50.844;4.396;2022-10-31T09:17:07;17.30;99.90
23160;DHT22;11748;50.844;4.396;2022-10-31T09:19:32;17.50;99.90
23160;DHT22;11748;50.844;4.396;2022-10-31T09:21:58;17.60;99.90
23160;DHT22;11748;50.844;4.396;2022-10-31T09:24:24;17.60;99.90
23160;DHT22;11748;50.844;4.396;2022-10-31T09:26:49;17.60;99.90
23160;DHT22;11748;50.844;4.396;2022-10-31T09:29:15;17.60;99.90
23160;DHT22;11748;50.844;4.396;2022-10-31T09:31:41;17.50;99.90
23160;DHT22;11748;50.844;4.396;2022-10-31T09:34:06;17.40;99.90
23160;DHT22;11748;50.844;4.396;2022-10-31T09:36:32;17.40;99.90
23160;DHT22;11748;50.844;4.396;2022-10-31T09:38:57;17.40;99.90
23160;DHT22;11748;50.844;4.396;2022-10-31T09:47:25;17.40;99.90
23160;DHT22;11748;50.844;4.396;2022-10-31T09:50:10;17.40;99.90
23160;DHT22;11748;50.844;4.396;2022-10-31T09:52:41;17.30;99.90
23160;DHT22;11748;50.844;4.396;2022-10-31T09:55:31;17.40;99.90
23160;DHT22;11748;50.844;4.396;2022-10-31T09:58:01;17.50;99.90
23160;DHT22;11748;50.844;4.396;2022-10-31T10:00:27;17.50;99.90
23160;DHT22;11748;50.844;4.396;2022-10-31T10:02:57;17.60;99.90
23160;DHT22;11748;50.844;4.396;2022-10-31T10:05:40;17.70;99.90
23160;DHT22;11748;50.844;4.396;2022-10-31T10:08:15;17.70;99.90
23160;DHT22;11748;50.844;4.396;2022-10-31T10:10:50;17.70;99.90
23160;DHT22;11748;50.844;4.396;2022-10-31T10:16:06;17.90;99.90
23160;DHT22;11748;50.844;4.396;2022-10-31T10:21:16;18.10;99.90
23160;DHT22;11748;50.844;4.396;2022-10-31T10:26:21;18.30;99.90
23160;DHT22;11748;50.844;4.396;2022-10-31T10:29:17;18.40;99.90
23160;DHT22;11748;50.844;4.396;2022-10-31T10:31:46;18.40;99.90
23160;DHT22;11748;50.844;4.396;2022-10-31T10:34:18;18.40;99.90
23160;DHT22;11748;50.844;4.396;2022-10-31T10:36:53;18.50;99.90
23160;DHT22;11748;50.844;4.396;2022-10-31T10:39:25;18.50;99.90
23160;DHT22;11748;50.844;4.396;2022-10-31T10:41:53;18.50;99.90
23160;DHT22;11748;50.844;4.396;2022-10-31T10:44:46;18.60;99.90
23160;DHT22;11748;50.844;4.396;2022-10-31T10:47:39;18.70;99.90
23160;DHT22;11748;50.844;4.396;2022-10-31T10:50:17;18.60;99.90
23160;DHT22;11748;50.844;4.396;2022-10-31T10:56:11;18.60;99.90
23160;DHT22;11748;50.844;4.396;2022-10-31T10:58:26;18.70;99.90
23160;DHT22;11748;50.844;4.396;2022-10-31T11:00:53;18.80;99.90
23160;DHT22;11748;50.844;4.396;2022-10-31T11:03:19;18.80;99.90
23160;DHT22;11748;50.844;4.396;2022-10-31T11:05:56;18.90;99.90
23160;DHT22;11748;50.844;4.396;2022-10-31T11:08:29;19.00;99.90
23160;DHT22;11748;50.844;4.396;2022-10-31T11:11:13;19.00;99.90
23160;DHT22;11748;50.844;4.396;2022-10-31T11:13:48;19.10;99.90
23160;DHT22;11748;50.844;4.396;2022-10-31T11:18:52;19.10;99.90
23160;DHT22;11748;50.844;4.396;2022-10-31T11:21:25;19.10;99.90
23160;DHT22;11748;50.844;4.396;2022-10-31T11:24:03;19.10;99.90
23160;DHT22;11748;50.844;4.396;2022-10-31T11:26:28;19.10;99.90
23160;DHT22;11748;50.844;4.396;2022-10-31T11:28:58;19.00;99.90
23160;DHT22;11748;50.844;4.396;2022-10-31T11:31:26;18.90;99.90
23160;DHT22;11748;50.844;4.396;2022-10-31T11:33:59;19.00;99.90
23160;DHT22;11748;50.844;4.396;2022-10-31T11:36:29;19.00;99.90
23160;DHT22;11748;50.844;4.396;2022-10-31T11:38:56;18.90;99.90
23160;DHT22;11748;50.844;4.396;2022-10-31T11:41:30;19.00;99.90
23160;DHT22;11748;50.844;4.396;2022-10-31T11:43:58;19.00;99.90
23160;DHT22;11748;50.844;4.396;2022-10-31T11:46:43;19.00;99.90
23160;DHT22;11748;50.844;4.396;2022-10-31T11:49:40;19.00;99.90
23160;DHT22;11748;50.844;4.396;2022-10-31T11:54:50;19.10;99.90
23160;DHT22;11748;50.844;4.396;2022-10-31T11:59:55;19.20;99.90
23160;DHT22;11748;50.844;4.396;2022-10-31T12:02:21;19.30;99.90
23160;DHT22;11748;50.844;4.396;2022-10-31T12:04:55;19.40;99.90
23160;DHT22;11748;50.844;4.396;2022-10-31T12:07:23;19.40;99.90
23160;DHT22;11748;50.844;4.396;2022-10-31T12:09:49;19.50;99.90
23160;DHT22;11748;50.844;4.396;2022-10-31T12:12:39;19.50;99.90
23160;DHT22;11748;50.844;4.396;2022-10-31T12:23:47;20.20;99.90
23160;DHT22;11748;50.844;4.396;2022-10-31T12:37:13;20.20;99.90
23160;DHT22;11748;50.844;4.396;2022-10-31T12:42:41;20.00;99.90
23160;DHT22;11748;50.844;4.396;2022-10-31T12:53:42;19.80;99.90
23160;DHT22;11748;50.844;4.396;2022-10-31T12:56:39;19.80;99.90
23160;DHT22;11748;50.844;4.396;2022-10-31T13:04:55;19.90;99.90
23160;DHT22;11748;50.844;4.396;2022-10-31T13:07:40;19.80;99.90
23160;DHT22;11748;50.844;4.396;2022-10-31T13:10:25;19.80;99.90
23160;DHT22;11748;50.844;4.396;2022-10-31T13:12:57;19.80;99.90
23160;DHT22;11748;50.844;4.396;2022-10-31T13:15:27;19.80;99.90
23160;DHT22;11748;50.844;4.396;2022-10-31T13:18:09;19.80;99.90
23160;DHT22;11748;50.844;4.396;2022-10-31T13:20:46;19.80;99.90
23160;DHT22;11748;50.844;4.396;2022-10-31T13:25:51;19.90;99.90
23160;DHT22;11748;50.844;4.396;2022-10-31T13:31:04;19.80;99.90
23160;DHT22;11748;50.844;4.396;2022-10-31T13:33:35;19.70;99.90
23160;DHT22;11748;50.844;4.396;2022-10-31T13:38:54;19.70;99.90
23160;DHT22;11748;50.844;4.396;2022-10-31T13:44:12;19.70;99.90
23160;DHT22;11748;50.844;4.396;2022-10-31T13:46:41;19.60;99.90
23160;DHT22;11748;50.844;4.396;2022-10-31T13:54:37;19.60;99.90
23160;DHT22;11748;50.844;4.396;2022-10-31T13:57:52;19.50;99.90
23160;DHT22;11748;50.844;4.396;2022-10-31T13:59:55;19.50;99.90
23160;DHT22;11748;50.844;4.396;2022-10-31T14:02:31;19.50;99.90
23160;DHT22;11748;50.844;4.396;2022-10-31T14:05:19;19.60;99.90
23160;DHT22;11748;50.844;4.396;2022-10-31T14:07:47;19.60;99.90
23160;DHT22;11748;50.844;4.396;2022-10-31T14:10:38;19.60;99.90
23160;DHT22;11748;50.844;4.396;2022-10-31T14:13:22;19.60;99.90
23160;DHT22;11748;50.844;4.396;2022-10-31T14:20:59;19.70;99.90
23160;DHT22;11748;50.844;4.396;2022-10-31T14:28:59;19.60;99.90
23160;DHT22;11748;50.844;4.396;2022-10-31T14:31:41;19.50;99.90
23160;DHT22;11748;50.844;4.396;2022-10-31T14:55:52;19.50;99.90
23160;DHT22;11748;50.844;4.396;2022-10-31T14:58:44;19.40;99.90
23160;DHT22;11748;50.844;4.396;2022-10-31T15:01:31;19.30;99.90
23160;DHT22;11748;50.844;4.396;2022-10-31T15:04:19;19.30;99.90
23160;DHT22;11748;50.844;4.396;2022-10-31T15:11:48;19.40;99.90
23160;DHT22;11748;50.844;4.396;2022-10-31T15:14:23;19.30;99.90
23160;DHT22;11748;50.844;4.396;2022-10-31T15:16:50;19.30;99.90
23160;DHT22;11748;50.844;4.396;2022-10-31T15:19:23;19.10;99.90
23160;DHT22;11748;50.844;4.396;2022-10-31T15:21:52;19.10;99.90
23160;DHT22;11748;50.844;4.396;2022-10-31T15:24:18;19.00;99.90
23160;DHT22;11748;50.844;4.396;2022-10-31T15:26:48;19.00;99.90
23160;DHT22;11748;50.844;4.396;2022-10-31T15:29:16;19.00;99.90
23160;DHT22;11748;50.844;4.396;2022-10-31T15:31:55;19.00;99.90
23160;DHT22;11748;50.844;4.396;2022-10-31T15:34:42;19.00;99.90
23160;DHT22;11748;50.844;4.396;2022-10-31T15:37:13;18.90;99.90
23160;DHT22;11748;50.844;4.396;2022-10-31T15:39:43;18.90;99.90
23160;DHT22;11748;50.844;4.396;2022-10-31T15:42:32;18.80;99.90
23160;DHT22;11748;50.844;4.396;2022-10-31T15:45:17;18.80;99.90
23160;DHT22;11748;50.844;4.396;2022-10-31T15:48:01;18.80;99.90
23160;DHT22;11748;50.844;4.396;2022-10-31T15:50:37;18.70;99.90
23160;DHT22;11748;50.844;4.396;2022-10-31T15:53:05;18.60;99.90
23160;DHT22;11748;50.844;4.396;2022-10-31T15:55:36;18.60;99.90
23160;DHT22;11748;50.844;4.396;2022-10-31T15:58:11;18.60;99.90
23160;DHT22;11748;50.844;4.396;2022-10-31T16:00:38;18.50;99.90
23160;DHT22;11748;50.844;4.396;2022-10-31T16:05:47;18.40;99.90
23160;DHT22;11748;50.844;4.396;2022-10-31T16:13:40;18.40;99.90
23160;DHT22;11748;50.844;4.396;2022-10-31T16:16:14;18.30;99.90
23160;DHT22;11748;50.844;4.396;2022-10-31T16:18:41;18.30;99.90
23160;DHT22;11748;50.844;4.396;2022-10-31T16:21:08;18.20;99.90
23160;DHT22;11748;50.844;4.396;2022-10-31T16:23:37;18.30;99.90
23160;DHT22;11748;50.844;4.396;2022-10-31T16:26:07;18.20;99.90
23160;DHT22;11748;50.844;4.396;2022-10-31T16:28:33;18.10;99.90
23160;DHT22;11748;50.844;4.396;2022-10-31T16:30:59;18.10;99.90
23160;DHT22;11748;50.844;4.396;2022-10-31T16:33:32;18.10;99.90
23160;DHT22;11748;50.844;4.396;2022-10-31T16:38:54;18.00;99.90
23160;DHT22;11748;50.844;4.396;2022-10-31T16:41:20;17.90;99.90
23160;DHT22;11748;50.844;4.396;2022-10-31T16:43:46;17.80;99.90
23160;DHT22;11748;50.844;4.396;2022-10-31T16:46:26;17.80;99.90
23160;DHT22;11748;50.844;4.396;2022-10-31T16:48:53;17.80;99.90
23160;DHT22;11748;50.844;4.396;2022-10-31T16:51:19;17.80;99.90
23160;DHT22;11748;50.844;4.396;2022-10-31T16:53:45;17.70;99.90
23160;DHT22;11748;50.844;4.396;2022-10-31T16:56:30;17.70;99.90
23160;DHT22;11748;50.844;4.396;2022-10-31T16:58:57;17.70;99.90
23160;DHT22;11748;50.844;4.396;2022-10-31T17:01:24;17.70;99.90
23160;DHT22;11748;50.844;4.396;2022-10-31T17:03:49;17.70;99.90
23160;DHT22;11748;50.844;4.396;2022-10-31T17:06:15;17.70;99.90
23160;DHT22;11748;50.844;4.396;2022-10-31T17:08:41;17.60;99.90
23160;DHT22;11748;50.844;4.396;2022-10-31T17:11:15;17.60;99.90
23160;DHT22;11748;50.844;4.396;2022-10-31T17:13:42;17.60;99.90
23160;DHT22;11748;50.844;4.396;2022-10-31T17:16:08;17.60;99.90
23160;DHT22;11748;50.844;4.396;2022-10-31T17:18:33;17.70;99.90
23160;DHT22;11748;50.844;4.396;2022-10-31T17:21:01;17.70;99.90
23160;DHT22;11748;50.844;4.396;2022-10-31T17:23:27;17.70;99.90
23160;DHT22;11748;50.844;4.396;2022-10-31T17:25:54;17.60;99.90
23160;DHT22;11748;50.844;4.396;2022-10-31T17:28:20;17.60;99.90
23160;DHT22;11748;50.844;4.396;2022-10-31T17:30:46;17.60;99.90
23160;DHT22;11748;50.844;4.396;2022-10-31T17:33:13;17.60;99.90
23160;DHT22;11748;50.844;4.396;2022-10-31T17:35:40;17.60;99.90
23160;DHT22;11748;50.844;4.396;2022-10-31T17:38:06;17.60;99.90
23160;DHT22;11748;50.844;4.396;2022-10-31T17:40:32;17.60;99.90
23160;DHT22;11748;50.844;4.396;2022-10-31T17:42:58;17.60;99.90
23160;DHT22;11748;50.844;4.396;2022-10-31T17:45:25;17.60;99.90
23160;DHT22;11748;50.844;4.396;2022-10-31T17:47:52;17.50;99.90
23160;DHT22;11748;50.844;4.396;2022-10-31T17:50:21;17.60;99.90
23160;DHT22;11748;50.844;4.396;2022-10-31T17:52:47;17.50;99.90
23160;DHT22;11748;50.844;4.396;2022-10-31T17:55:14;17.50;99.90
23160;DHT22;11748;50.844;4.396;2022-10-31T17:57:40;17.50;99.90
23160;DHT22;11748;50.844;4.396;2022-10-31T18:00:08;17.60;99.90
23160;DHT22;11748;50.844;4.396;2022-10-31T18:02:35;17.60;99.90
23160;DHT22;11748;50.844;4.396;2022-10-31T18:05:02;17.60;99.90
23160;DHT22;11748;50.844;4.396;2022-10-31T18:07:28;17.60;99.90
23160;DHT22;11748;50.844;4.396;2022-10-31T18:09:53;17.60;99.90
23160;DHT22;11748;50.844;4.396;2022-10-31T18:12:19;17.60;99.90
23160;DHT22;11748;50.844;4.396;2022-10-31T18:14:45;17.60;99.90
23160;DHT22;11748;50.844;4.396;2022-10-31T18:17:11;17.60;99.90
23160;DHT22;11748;50.844;4.396;2022-10-31T18:19:36;17.60;99.90
23160;DHT22;11748;50.844;4.396;2022-10-31T18:22:02;17.60;99.90